createdAt,value
2023-03-27T00:01:25.443Z,6.46
2023-03-27T00:03:53.375Z,6.45
2023-03-27T00:06:21.766Z,6.44
2023-03-27T00:08:51.026Z,6.41
2023-03-27T00:11:20.531Z,6.39
2023-03-27T00:13:51.134Z,6.37
2023-03-27T00:16:21.487Z,6.33
2023-03-27T00:18:48.754Z,6.29
2023-03-27T00:21:15.966Z,6.25
2023-03-27T00:23:42.898Z,6.21
2023-03-27T00:26:11.797Z,6.16
2023-03-27T00:28:38.897Z,6.12
2023-03-27T00:31:11.804Z,6.08
2023-03-27T00:33:39.576Z,6.03
2023-03-27T00:36:07.543Z,5.97
2023-03-27T00:38:34.654Z,5.93
2023-03-27T00:41:02.115Z,5.89
2023-03-27T00:43:35.589Z,5.86
2023-03-27T00:46:05.806Z,5.82
2023-03-27T00:48:37.360Z,5.78
2023-03-27T00:51:06.038Z,5.76
2023-03-27T00:53:33.634Z,5.72
2023-03-27T00:56:07.626Z,5.69
2023-03-27T00:58:51.175Z,5.64
2023-03-27T01:01:21.676Z,5.56
2023-03-27T01:03:50.023Z,5.52
2023-03-27T01:06:18.695Z,5.46
2023-03-27T01:08:47.536Z,5.38
2023-03-27T01:11:22.202Z,5.33
2023-03-27T01:14:19.867Z,5.29
2023-03-27T01:17:26.230Z,5.20
2023-03-27T01:20:23.489Z,5.15
2023-03-27T01:23:59.734Z,5.08
2023-03-27T01:27:03.419Z,5.00
2023-03-27T01:29:56.567Z,4.95
2023-03-27T01:32:53.969Z,4.84
2023-03-27T01:35:55.374Z,4.77
2023-03-27T01:38:48.128Z,4.71
2023-03-27T01:41:35.212Z,4.63
2023-03-27T01:44:13.377Z,4.59
2023-03-27T01:46:58.265Z,4.56
2023-03-27T01:49:39.940Z,4.53
2023-03-27T01:52:15.929Z,4.50
2023-03-27T01:54:50.253Z,4.49
2023-03-27T01:57:27.210Z,4.47
2023-03-27T02:00:18.670Z,4.44
2023-03-27T02:02:57.250Z,4.42
2023-03-27T02:05:52.992Z,4.42
2023-03-27T02:08:37.569Z,4.40
2023-03-27T02:11:17.516Z,4.37
2023-03-27T02:13:57.519Z,4.33
2023-03-27T02:16:33.542Z,4.31
2023-03-27T02:19:12.284Z,4.28
2023-03-27T02:21:39.235Z,4.25
2023-03-27T02:24:08.887Z,4.22
2023-03-27T02:26:36.186Z,4.18
2023-03-27T02:29:41.764Z,4.14
2023-03-27T02:33:08.914Z,4.09
2023-03-27T02:36:05.140Z,4.07
2023-03-27T02:38:51.444Z,4.05
2023-03-27T02:41:47.943Z,4.01
2023-03-27T02:44:51.613Z,3.99
2023-03-27T02:47:32.518Z,3.96
2023-03-27T02:50:31.745Z,3.92
2023-03-27T02:53:11.927Z,3.84
2023-03-27T02:55:54.961Z,3.79
2023-03-27T02:58:58.320Z,3.72
2023-03-27T03:01:36.377Z,3.65
2023-03-27T03:04:35.682Z,3.58
2023-03-27T03:07:14.332Z,3.52
2023-03-27T03:09:44.518Z,3.46
2023-03-27T03:12:12.135Z,3.42
2023-03-27T03:14:48.819Z,3.38
2023-03-27T03:17:16.943Z,3.35
2023-03-27T03:19:45.421Z,3.31
2023-03-27T03:22:13.221Z,3.25
2023-03-27T03:24:42.193Z,3.20
2023-03-27T03:27:10.950Z,3.15
2023-03-27T03:29:48.465Z,3.07
2023-03-27T03:32:18.708Z,2.99
2023-03-27T03:34:48.616Z,2.93
2023-03-27T03:37:16.197Z,2.86
2023-03-27T03:39:43.146Z,2.80
2023-03-27T03:42:10.169Z,2.73
2023-03-27T03:44:51.498Z,2.68
2023-03-27T03:47:20.609Z,2.61
2023-03-27T03:49:47.665Z,2.55
2023-03-27T03:52:14.699Z,2.47
2023-03-27T03:54:41.998Z,2.43
2023-03-27T03:57:09.059Z,2.39
2023-03-27T03:59:36.273Z,2.35
2023-03-27T04:02:30.526Z,2.31
2023-03-27T04:05:08.758Z,2.24
2023-03-27T04:07:40.532Z,2.19
2023-03-27T04:10:39.446Z,2.15
2023-03-27T04:13:13.413Z,2.10
2023-03-27T04:15:51.307Z,2.07
2023-03-27T04:18:34.903Z,2.02
2023-03-27T04:21:06.043Z,1.98
2023-03-27T04:23:33.750Z,1.94
2023-03-27T04:26:03.168Z,1.90
2023-03-27T04:28:51.662Z,1.87
2023-03-27T04:31:39.048Z,1.83
2023-03-27T04:34:25.231Z,1.80
2023-03-27T04:37:07.947Z,1.79
2023-03-27T04:39:42.642Z,1.78
2023-03-27T04:42:10.638Z,1.75
2023-03-27T04:44:38.852Z,1.75
2023-03-27T04:47:08.745Z,1.74
2023-03-27T04:49:50.734Z,1.72
2023-03-27T04:52:21.960Z,1.70
2023-03-27T04:54:49.398Z,1.68
2023-03-27T04:57:18.931Z,1.68
2023-03-27T04:59:48.605Z,1.66
2023-03-27T05:02:34.355Z,1.63
2023-03-27T05:05:08.943Z,1.61
2023-03-27T05:07:37.363Z,1.59
2023-03-27T05:10:07.416Z,1.58
2023-03-27T05:12:35.175Z,1.56
2023-03-27T05:15:06.151Z,1.55
2023-03-27T05:17:42.069Z,1.54
2023-03-27T05:20:17.230Z,1.51
2023-03-27T05:22:45.564Z,1.50
2023-03-27T05:25:32.604Z,1.49
2023-03-27T05:28:02.866Z,1.46
2023-03-27T05:30:31.940Z,1.45
2023-03-27T05:33:20.649Z,1.43
2023-03-27T05:35:50.028Z,1.40
2023-03-27T05:38:18.045Z,1.40
2023-03-27T05:41:11.781Z,1.38
2023-03-27T05:43:45.308Z,1.35
2023-03-27T05:46:13.608Z,1.34
2023-03-27T05:48:54.116Z,1.32
2023-03-27T05:51:21.494Z,1.31
2023-03-27T05:53:48.874Z,1.30
2023-03-27T05:56:25.344Z,1.29
2023-03-27T05:58:54.885Z,1.28
2023-03-27T06:01:23.764Z,1.27
2023-03-27T06:03:56.017Z,1.26
2023-03-27T06:06:30.535Z,1.26
2023-03-27T06:08:59.340Z,1.26
2023-03-27T06:11:27.974Z,1.26
2023-03-27T06:13:55.770Z,1.26
2023-03-27T06:16:30.547Z,1.26
2023-03-27T06:19:04.295Z,1.27
2023-03-27T06:21:31.571Z,1.28
2023-03-27T06:24:01.242Z,1.31
2023-03-27T06:26:28.270Z,1.33
2023-03-27T06:28:56.488Z,1.35
2023-03-27T06:31:24.345Z,1.39
2023-03-27T06:34:14.964Z,1.42
2023-03-27T06:36:50.100Z,1.47
2023-03-27T06:39:17.758Z,1.53
2023-03-27T06:41:49.587Z,1.55
2023-03-27T06:44:31.976Z,1.60
2023-03-27T06:47:07.154Z,1.65
2023-03-27T06:49:39.209Z,1.70
2023-03-27T06:52:15.058Z,1.76
2023-03-27T06:54:43.586Z,1.82
2023-03-27T06:57:12.328Z,1.90
2023-03-27T07:00:00.916Z,2.00
2023-03-27T07:02:47.439Z,2.11
2023-03-27T07:05:36.744Z,2.21
2023-03-27T07:08:21.795Z,2.32
2023-03-27T07:13:25.675Z,2.50
2023-03-27T07:15:53.576Z,2.54
2023-03-27T07:18:22.394Z,2.59
2023-03-27T07:20:51.223Z,2.63
2023-03-27T07:23:21.955Z,2.67
2023-03-27T07:26:00.154Z,2.72
2023-03-27T07:28:51.762Z,2.80
2023-03-27T07:31:36.506Z,2.86
2023-03-27T07:34:07.230Z,2.93
2023-03-27T07:37:01.546Z,2.98
2023-03-27T07:39:28.852Z,3.03
2023-03-27T07:41:56.033Z,3.07
2023-03-27T07:44:31.830Z,3.13
2023-03-27T07:47:04.300Z,3.19
2023-03-27T07:49:39.297Z,3.27
2023-03-27T07:52:09.555Z,3.37
2023-03-27T07:54:44.346Z,3.47
2023-03-27T07:57:13.758Z,3.59
2023-03-27T07:59:49.520Z,3.70
2023-03-27T08:02:25.005Z,3.82
2023-03-27T08:04:52.624Z,3.93
2023-03-27T08:07:22.508Z,4.03
2023-03-27T08:09:49.507Z,4.15
2023-03-27T08:12:16.475Z,4.29
2023-03-27T08:14:55.173Z,4.45
2023-03-27T08:17:31.469Z,4.60
2023-03-27T08:19:59.442Z,4.76
2023-03-27T08:22:26.679Z,4.87
2023-03-27T08:25:12.658Z,4.97
2023-03-27T08:27:40.520Z,5.04
2023-03-27T08:30:09.188Z,5.08
2023-03-27T08:32:40.301Z,5.12
2023-03-27T08:35:10.358Z,5.16
2023-03-27T08:37:37.655Z,5.20
2023-03-27T08:40:30.764Z,5.22
2023-03-27T08:43:22.116Z,5.19
2023-03-27T08:46:03.564Z,5.20
2023-03-27T08:48:44.244Z,5.28
2023-03-27T08:51:22.360Z,5.33
2023-03-27T08:54:08.975Z,5.38
2023-03-27T08:56:37.343Z,5.45
2023-03-27T08:59:12.375Z,5.53
2023-03-27T09:02:02.433Z,5.61
2023-03-27T09:04:52.897Z,5.76
2023-03-27T09:07:34.541Z,5.92
2023-03-27T09:10:57.692Z,6.16
2023-03-27T09:13:45.696Z,6.34
2023-03-27T09:16:49.191Z,6.53
2023-03-27T09:19:51.852Z,6.71
2023-03-27T09:22:29.621Z,6.79
2023-03-27T09:25:35.700Z,6.89
2023-03-27T09:28:25.600Z,6.93
2023-03-27T09:31:35.863Z,6.98
2023-03-27T09:34:13.635Z,7.02
2023-03-27T09:36:42.140Z,7.07
2023-03-27T09:39:17.119Z,7.17
2023-03-27T09:42:09.121Z,7.26
2023-03-27T09:44:42.358Z,7.34
2023-03-27T09:47:25.358Z,7.41
2023-03-27T09:50:19.509Z,7.45
2023-03-27T09:53:18.929Z,7.53
2023-03-27T09:56:21.358Z,7.65
2023-03-27T09:58:51.894Z,7.76
2023-03-27T10:01:38.253Z,7.90
2023-03-27T10:04:18.379Z,7.97
2023-03-27T10:07:10.107Z,8.04
2023-03-27T10:10:19.783Z,8.04
2023-03-27T10:13:14.082Z,7.99
2023-03-27T10:15:51.100Z,7.92
2023-03-27T10:18:31.376Z,7.92
2023-03-27T10:21:39.441Z,7.92
2023-03-27T10:24:33.535Z,7.98
2023-03-27T10:27:25.851Z,8.00
2023-03-27T10:30:30.650Z,8.00
2023-03-27T10:33:12.927Z,8.04
2023-03-27T10:35:49.654Z,8.12
2023-03-27T10:38:22.750Z,8.19
2023-03-27T10:41:04.181Z,8.31
2023-03-27T10:43:45.973Z,8.41
2023-03-27T10:46:21.561Z,8.46
2023-03-27T10:49:04.062Z,8.49
2023-03-27T10:51:55.985Z,8.49
2023-03-27T10:54:45.411Z,8.41
2023-03-27T10:57:30.074Z,8.31
2023-03-27T11:00:38.020Z,8.21
2023-03-27T11:03:30.855Z,8.18
2023-03-27T11:06:08.113Z,8.15
2023-03-27T11:09:01.876Z,8.20
2023-03-27T11:12:04.504Z,8.34
2023-03-27T11:14:48.413Z,8.49
2023-03-27T11:17:29.689Z,8.71
2023-03-27T11:20:56.421Z,8.97
2023-03-27T11:23:56.381Z,9.07
2023-03-27T11:27:03.605Z,9.19
2023-03-27T11:29:39.480Z,9.22
2023-03-27T11:32:28.772Z,9.22
2023-03-27T11:35:05.754Z,9.12
2023-03-27T11:38:04.853Z,9.01
2023-03-27T11:40:44.689Z,8.88
2023-03-27T11:43:17.056Z,8.76
2023-03-27T11:45:51.750Z,8.66
2023-03-27T11:48:59.575Z,8.52
2023-03-27T11:51:52.728Z,8.26
2023-03-27T11:54:48.313Z,8.05
2023-03-27T11:57:26.931Z,7.91
2023-03-27T12:00:39.941Z,7.76
2023-03-27T12:03:33.523Z,7.59
2023-03-27T12:06:14.637Z,7.50
2023-03-27T12:09:00.909Z,7.47
2023-03-27T12:11:44.880Z,7.60
2023-03-27T12:14:40.678Z,7.83
2023-03-27T12:17:43.963Z,8.12
2023-03-27T12:20:28.827Z,8.35
2023-03-27T12:23:51.534Z,8.55
2023-03-27T12:27:16.963Z,8.88
2023-03-27T12:30:23.385Z,9.10
2023-03-27T12:33:07.118Z,9.15
2023-03-27T12:35:58.252Z,9.19
2023-03-27T12:38:35.528Z,9.16
2023-03-27T12:41:10.871Z,9.13
2023-03-27T12:44:03.610Z,9.06
2023-03-27T12:46:42.152Z,9.01
2023-03-27T12:49:13.579Z,8.93
2023-03-27T12:51:53.647Z,8.85
2023-03-27T12:54:39.745Z,8.73
2023-03-27T12:57:27.190Z,8.72
2023-03-27T13:00:09.304Z,8.79
2023-03-27T13:03:14.235Z,8.85
2023-03-27T13:06:03.602Z,8.76
2023-03-27T13:08:48.375Z,8.75
2023-03-27T13:11:58.757Z,8.72
2023-03-27T13:15:00.383Z,8.63
2023-03-27T13:18:35.687Z,8.57
2023-03-27T13:22:13.462Z,8.40
2023-03-27T13:25:51.311Z,8.26
2023-03-27T13:28:50.606Z,8.08
2023-03-27T13:31:56.709Z,8.00
2023-03-27T13:34:38.381Z,7.94
2023-03-27T13:37:11.784Z,7.89
2023-03-27T13:39:58.683Z,7.83
2023-03-27T13:42:50.358Z,7.79
2023-03-27T13:45:26.449Z,7.74
2023-03-27T13:49:07.740Z,7.73
2023-03-27T13:52:06.894Z,7.84
2023-03-27T13:55:00.660Z,8.12
2023-03-27T13:58:09.312Z,8.36
2023-03-27T14:00:59.541Z,8.61
2023-03-27T14:04:09.041Z,8.92
2023-03-27T14:07:13.822Z,9.15
2023-03-27T14:10:33.127Z,9.20
2023-03-27T14:13:36.500Z,9.28
2023-03-27T14:16:37.474Z,9.29
2023-03-27T14:20:06.619Z,9.32
2023-03-27T14:22:53.327Z,9.30
2023-03-27T14:25:43.725Z,9.29
2023-03-27T14:28:51.296Z,9.07
2023-03-27T14:31:35.200Z,8.89
2023-03-27T14:34:24.737Z,8.67
2023-03-27T14:37:36.326Z,8.37
2023-03-27T14:40:33.027Z,8.16
2023-03-27T14:43:07.165Z,8.02
2023-03-27T14:45:40.075Z,7.89
2023-03-27T14:48:22.875Z,7.80
2023-03-27T14:50:54.722Z,7.70
2023-03-27T14:53:28.284Z,7.63
2023-03-27T14:56:37.416Z,7.67
2023-03-27T14:59:29.852Z,7.73
2023-03-27T15:02:13.408Z,7.80
2023-03-27T15:04:40.809Z,7.82
2023-03-27T15:07:21.576Z,7.86
2023-03-27T15:10:28.018Z,7.85
2023-03-27T15:13:10.531Z,7.85
2023-03-27T15:15:44.155Z,7.86
2023-03-27T15:18:24.532Z,7.89
2023-03-27T15:20:53.917Z,7.93
2023-03-27T15:23:33.529Z,7.98
2023-03-27T15:26:11.971Z,8.01
2023-03-27T15:29:01.133Z,8.09
2023-03-27T15:31:30.058Z,8.21
2023-03-27T15:34:45.909Z,8.42
2023-03-27T15:37:23.237Z,8.57
2023-03-27T15:40:10.948Z,8.71
2023-03-27T15:42:51.444Z,8.85
2023-03-27T15:45:34.156Z,8.97
2023-03-27T15:48:28.943Z,9.07
2023-03-27T15:51:01.700Z,9.11
2023-03-27T15:53:38.312Z,9.22
2023-03-27T15:56:28.383Z,9.23
2023-03-27T15:59:04.914Z,9.34
2023-03-27T16:01:52.163Z,9.39
2023-03-27T16:04:36.213Z,9.40
2023-03-27T16:07:18.954Z,9.45
2023-03-27T16:10:02.817Z,9.44
2023-03-27T16:12:56.909Z,9.45
2023-03-27T16:15:38.877Z,9.48
2023-03-27T16:18:36.735Z,9.45
2023-03-27T16:21:15.151Z,9.29
2023-03-27T16:23:43.869Z,9.09
2023-03-27T16:26:26.490Z,8.98
2023-03-27T16:29:05.006Z,8.88
2023-03-27T16:31:32.030Z,8.72
2023-03-27T16:33:59.828Z,8.46
2023-03-27T16:36:32.510Z,8.33
2023-03-27T16:38:59.657Z,8.22
2023-03-27T16:41:26.634Z,8.05
2023-03-27T16:43:53.559Z,8.02
2023-03-27T16:46:26.661Z,7.73
2023-03-27T16:48:54.801Z,7.74
2023-03-27T16:51:24.612Z,7.65
2023-03-27T16:53:52.843Z,7.56
2023-03-27T16:56:20.739Z,7.49
2023-03-27T16:58:48.487Z,7.40
2023-03-27T17:01:16.166Z,7.30
2023-03-27T17:03:43.942Z,7.22
2023-03-27T17:06:12.756Z,7.17
2023-03-27T17:08:39.817Z,7.11
2023-03-27T17:11:13.504Z,7.04
2023-03-27T17:13:43.396Z,6.97
2023-03-27T17:16:11.441Z,6.91
2023-03-27T17:18:38.650Z,6.86
2023-03-27T17:21:05.925Z,6.79
2023-03-27T17:23:33.203Z,6.75
2023-03-27T17:26:03.850Z,6.70
2023-03-27T17:28:32.561Z,6.67
2023-03-27T17:31:04.613Z,6.65
2023-03-27T17:33:33.257Z,6.62
2023-03-27T17:36:00.882Z,6.57
2023-03-27T17:38:28.452Z,6.52
2023-03-27T17:40:55.630Z,6.50
2023-03-27T17:43:22.593Z,6.48
2023-03-27T17:45:51.006Z,6.46
2023-03-27T17:48:18.862Z,6.42
2023-03-27T17:50:58.018Z,6.38
2023-03-27T17:53:34.538Z,6.34
2023-03-27T17:56:02.146Z,6.28
2023-03-27T17:58:29.079Z,6.23
2023-03-27T18:00:56.342Z,6.17
2023-03-27T18:03:23.985Z,6.09
2023-03-27T18:05:52.106Z,6.04
2023-03-27T18:08:19.930Z,5.97
2023-03-27T18:10:50.498Z,5.90
2023-03-27T18:13:18.926Z,5.88
2023-03-27T18:15:46.511Z,5.83
2023-03-27T18:18:13.466Z,5.80
2023-03-27T18:20:41.112Z,5.74
2023-03-27T18:23:08.609Z,5.68
2023-03-27T18:25:35.739Z,5.64
2023-03-27T18:28:03.376Z,5.60
2023-03-27T18:30:32.353Z,5.54
2023-03-27T18:32:59.440Z,5.50
2023-03-27T18:35:26.469Z,5.47
2023-03-27T18:37:53.412Z,5.38
2023-03-27T18:40:20.939Z,5.35
2023-03-27T18:42:48.066Z,5.30
2023-03-27T18:45:16.845Z,5.25
2023-03-27T18:47:44.864Z,5.19
2023-03-27T18:50:14.289Z,5.16
2023-03-27T18:52:42.294Z,5.10
2023-03-27T18:55:11.002Z,5.07
2023-03-27T18:57:38.370Z,5.04
2023-03-27T19:00:15.003Z,4.98
2023-03-27T19:02:42.666Z,4.95
2023-03-27T19:05:10.491Z,4.89
2023-03-27T19:07:37.698Z,4.88
2023-03-27T19:10:12.766Z,4.85
2023-03-27T19:12:39.917Z,4.83
2023-03-27T19:15:25.709Z,4.79
2023-03-27T19:18:16.190Z,4.78
2023-03-27T19:21:02.052Z,4.75
2023-03-27T19:23:42.751Z,4.69
2023-03-27T19:26:13.351Z,4.67
2023-03-27T19:28:43.953Z,4.64
2023-03-27T19:31:13.459Z,4.60
2023-03-27T19:33:42.787Z,4.57
2023-03-27T19:36:10.372Z,4.55
2023-03-27T19:38:38.501Z,4.53
2023-03-27T19:41:09.968Z,4.50
2023-03-27T19:43:40.308Z,4.48
2023-03-27T19:46:16.386Z,4.45
2023-03-27T19:48:45.634Z,4.43
2023-03-27T19:51:22.967Z,4.40
2023-03-27T19:53:51.760Z,4.36
2023-03-27T19:56:22.419Z,4.32
2023-03-27T19:58:49.456Z,4.28
2023-03-27T20:01:19.683Z,4.23
2023-03-27T20:03:47.391Z,4.20
2023-03-27T20:06:18.783Z,4.15
2023-03-27T20:08:46.247Z,4.10
2023-03-27T20:11:15.728Z,4.04
2023-03-27T20:13:55.614Z,4.01
2023-03-27T20:16:26.210Z,3.95
2023-03-27T20:18:55.489Z,3.91
2023-03-27T20:21:24.724Z,3.87
2023-03-27T20:23:55.606Z,3.83
2023-03-27T20:26:39.102Z,3.79
2023-03-27T20:29:20.169Z,3.74
2023-03-27T20:31:48.038Z,3.71
2023-03-27T20:34:19.029Z,3.66
2023-03-27T20:36:46.468Z,3.64
2023-03-27T20:39:44.464Z,3.61
2023-03-27T20:42:17.308Z,3.57
2023-03-27T20:44:46.344Z,3.52
2023-03-27T20:47:15.001Z,3.49
2023-03-27T20:49:45.507Z,3.46
2023-03-27T20:52:16.945Z,3.43
2023-03-27T20:54:44.245Z,3.39
2023-03-27T20:57:12.883Z,3.37
2023-03-27T20:59:39.890Z,3.34
2023-03-27T21:02:07.036Z,3.29
2023-03-27T21:04:34.168Z,3.25
2023-03-27T21:07:01.155Z,3.21
2023-03-27T21:09:28.141Z,3.18
2023-03-27T21:11:56.193Z,3.14
2023-03-27T21:14:23.369Z,3.10
2023-03-27T21:16:50.469Z,3.06
2023-03-27T21:19:20.537Z,3.02
2023-03-27T21:21:47.832Z,2.97
2023-03-27T21:24:15.400Z,2.93
2023-03-27T21:26:42.466Z,2.88
2023-03-27T21:29:10.735Z,2.83
2023-03-27T21:31:41.451Z,2.79
2023-03-27T21:34:08.708Z,2.76
2023-03-27T21:36:37.773Z,2.72
2023-03-27T21:39:05.627Z,2.69
2023-03-27T21:41:32.731Z,2.66
2023-03-27T21:43:59.696Z,2.63
2023-03-27T21:46:26.790Z,2.60
2023-03-27T21:48:53.881Z,2.56
2023-03-27T21:51:20.939Z,2.52
2023-03-27T21:53:48.062Z,2.49
2023-03-27T21:56:15.264Z,2.44
2023-03-27T21:58:42.271Z,2.42
2023-03-27T22:01:09.280Z,2.40
2023-03-27T22:03:36.228Z,2.36
2023-03-27T22:06:11.802Z,2.33
2023-03-27T22:08:41.134Z,2.31
2023-03-27T22:11:08.579Z,2.28
2023-03-27T22:13:37.264Z,2.26
2023-03-27T22:16:13.379Z,2.23
2023-03-27T22:18:41.264Z,2.22
2023-03-27T22:21:22.225Z,2.19
2023-03-27T22:23:50.856Z,2.17
2023-03-27T22:26:20.332Z,2.14
2023-03-27T22:28:47.792Z,2.14
2023-03-27T22:31:14.828Z,2.11
2023-03-27T22:33:41.916Z,2.08
2023-03-27T22:36:11.698Z,2.06
2023-03-27T22:38:39.493Z,2.04
2023-03-27T22:41:08.993Z,2.02
2023-03-27T22:43:36.520Z,2.00
2023-03-27T22:46:13.637Z,1.98
2023-03-27T22:48:41.275Z,1.96
2023-03-27T22:51:10.346Z,1.94
2023-03-27T22:53:38.202Z,1.90
2023-03-27T22:56:07.178Z,1.89
2023-03-27T22:58:34.442Z,1.87
2023-03-27T23:01:04.391Z,1.85
2023-03-27T23:03:31.473Z,1.83
2023-03-27T23:05:58.685Z,1.81
2023-03-27T23:08:27.744Z,1.79
2023-03-27T23:11:04.474Z,1.77
2023-03-27T23:13:34.605Z,1.76
2023-03-27T23:16:01.816Z,1.75
2023-03-27T23:18:29.091Z,1.72
2023-03-27T23:21:02.528Z,1.70
2023-03-27T23:23:31.630Z,1.69
2023-03-27T23:25:59.115Z,1.68
2023-03-27T23:28:30.283Z,1.66
2023-03-27T23:31:01.073Z,1.62
2023-03-27T23:33:32.943Z,1.60
2023-03-27T23:36:07.363Z,1.58
2023-03-27T23:38:35.130Z,1.56
2023-03-27T23:41:02.904Z,1.54
2023-03-27T23:43:31.184Z,1.52
2023-03-27T23:45:59.456Z,1.51
2023-03-27T23:48:28.540Z,1.49
2023-03-27T23:50:57.039Z,1.47
2023-03-27T23:53:27.632Z,1.45
2023-03-27T23:55:56.578Z,1.43
2023-03-27T23:58:28.521Z,1.43
